Time;durP1;ratioP1;P1;durP2;ratioP2;P2;SDS_P1;SDS_P2;PMS_P1;PMS_P2;Temp;Humidity;BMP_temperature;BMP_pressure;BME280_temperature;BME280_humidity;BME280_pressure;Samples;Min_cycle;Max_cycle;Signal;HPM_P1;HPM_P2
2022/10/06 00:01:17;;;;;;;48.50;38.42;;;17.80;84.60;;;;;;5050069;28;20100;-56
2022/10/06 00:03:44;;;;;;;53.78;42.35;;;17.70;84.80;;;;;;5034943;28;20044;-57
2022/10/06 00:06:12;;;;;;;47.45;40.38;;;17.70;84.60;;;;;;5032434;28;20041;-57
2022/10/06 00:08:39;;;;;;;52.00;38.80;;;17.70;84.70;;;;;;5039898;28;20017;-57
2022/10/06 00:11:06;;;;;;;53.47;41.03;;;17.60;84.80;;;;;;5041151;28;20037;-58
2022/10/06 00:13:32;;;;;;;;;;;17.60;84.80;;;;;;5053735;28;20422;-55
2022/10/06 00:15:58;;;;;;;50.92;40.83;;;17.60;85.00;;;;;;5053671;28;19905;-57
2022/10/06 00:18:25;;;;;;;54.88;43.30;;;17.60;84.60;;;;;;5052987;28;20044;-56
2022/10/06 00:20:58;;;;;;;51.65;42.63;;;17.60;84.60;;;;;;5048499;28;20068;-57
2022/10/06 00:23:25;;;;;;;66.40;49.45;;;17.60;85.00;;;;;;5037575;28;20155;-55
2022/10/06 00:25:51;;;;;;;58.47;45.45;;;17.60;85.40;;;;;;5043732;28;20498;-57
2022/10/06 00:28:17;;;;;;;60.50;45.78;;;17.60;85.50;;;;;;5033151;28;20045;-58
2022/10/06 00:30:43;;;;;;;58.22;46.45;;;17.60;85.90;;;;;;5033206;28;20022;-57
2022/10/06 00:33:12;;;;;;;53.13;41.50;;;17.50;85.90;;;;;;5049445;28;20082;-56
2022/10/06 00:35:38;;;;;;;50.15;42.83;;;17.50;86.10;;;;;;5052859;28;20521;-55
2022/10/06 00:38:04;;;;;;;55.17;43.50;;;17.50;86.10;;;;;;5052899;28;20041;-56
2022/10/06 00:40:31;;;;;;;54.58;43.55;;;17.60;86.00;;;;;;5047795;28;20053;-55
2022/10/06 00:42:58;;;;;;;53.90;43.40;;;17.50;85.80;;;;;;5047518;28;20066;-58
2022/10/06 00:45:45;;;;;;;50.72;39.70;;;17.50;85.80;;;;;;5050885;28;20029;-58
2022/10/06 00:48:24;;;;;;;43.07;36.23;;;17.30;86.00;;;;;;5046981;28;20446;-58
2022/10/06 00:50:52;;;;;;;45.22;37.22;;;17.10;86.40;;;;;;5041776;28;20052;-56
2022/10/06 00:53:19;;;;;;;50.60;39.45;;;17.10;86.70;;;;;;5034040;28;20028;-55
2022/10/06 00:55:45;;;;;;;51.00;41.53;;;17.00;86.80;;;;;;5037287;28;20079;-57
2022/10/06 00:58:11;;;;;;;52.08;41.90;;;17.10;86.70;;;;;;5052206;28;20017;-53
2022/10/06 01:00:38;;;;;;;54.30;44.17;;;17.10;86.30;;;;;;5051026;28;20110;-55
2022/10/06 01:03:12;;;;;;;46.92;39.15;;;17.00;86.00;;;;;;5048923;28;20033;-56
2022/10/06 01:05:45;;;;;;;45.00;36.40;;;16.90;86.10;;;;;;5052881;28;20112;-58
2022/10/06 01:08:12;;;;;;;46.53;38.10;;;16.90;86.20;;;;;;5052175;28;20029;-57
2022/10/06 01:10:38;;;;;;;43.97;38.88;;;17.00;86.10;;;;;;5048967;28;20052;-56
2022/10/06 01:13:05;;;;;;;51.53;38.20;;;17.00;85.80;;;;;;5048173;28;20025;-54
2022/10/06 01:15:32;;;;;;;35.63;29.48;;;17.10;85.60;;;;;;5051721;28;20438;-56
2022/10/06 01:18:07;;;;;;;23.67;20.00;;;17.10;85.50;;;;;;5049108;28;20033;-55
2022/10/06 01:20:35;;;;;;;29.35;26.02;;;16.80;87.30;;;;;;5050689;28;20437;-56
2022/10/06 01:23:04;;;;;;;24.45;21.52;;;16.60;86.80;;;;;;5036372;28;20029;-57
2022/10/06 01:25:31;;;;;;;26.67;20.83;;;16.50;87.10;;;;;;5052188;28;20124;-57
2022/10/06 01:27:57;;;;;;;;;;;16.40;87.50;;;;;;5033491;28;20067;-53
2022/10/06 01:30:29;;;;;;;19.52;16.35;;;16.30;88.10;;;;;;5032092;28;19944;-55
2022/10/06 01:32:55;;;;;;;20.67;18.38;;;16.30;88.30;;;;;;5044776;28;20068;-56
2022/10/06 01:35:21;;;;;;;21.75;19.60;;;16.40;88.20;;;;;;5051757;28;20602;-56
2022/10/06 01:37:46;;;;;;;25.30;21.83;;;16.40;87.50;;;;;;5051838;28;20029;-56
2022/10/06 01:40:12;;;;;;;24.65;22.05;;;16.60;87.10;;;;;;5049736;28;20024;-57
2022/10/06 01:42:38;;;;;;;25.50;22.27;;;16.60;86.40;;;;;;5048532;28;20066;-57
2022/10/06 01:45:05;;;;;;;29.70;26.50;;;16.70;85.90;;;;;;5049886;28;20442;-53
2022/10/06 01:47:32;;;;;;;29.50;26.25;;;16.70;85.50;;;;;;5050262;28;20515;-54
2022/10/06 01:49:58;;;;;;;31.15;25.45;;;16.70;85.30;;;;;;5032532;28;20492;-56
2022/10/06 01:52:25;;;;;;;27.88;24.75;;;16.70;85.30;;;;;;5042322;28;20040;-55
2022/10/06 01:54:51;;;;;;;28.67;25.38;;;16.70;85.20;;;;;;5051017;28;20039;-58
2022/10/06 01:57:17;;;;;;;30.63;26.55;;;16.70;85.20;;;;;;5051723;28;20025;-58
2022/10/06 01:59:43;;;;;;;38.22;28.50;;;16.70;85.20;;;;;;5049944;28;20024;-57
2022/10/06 02:02:09;;;;;;;32.97;28.77;;;16.70;85.50;;;;;;5042837;28;20140;-57
2022/10/06 02:04:34;;;;;;;33.33;27.83;;;16.70;85.70;;;;;;5030243;28;20021;-54
2022/10/06 02:07:00;;;;;;;31.40;27.50;;;16.80;85.80;;;;;;5036623;28;20037;-55
2022/10/06 02:09:26;;;;;;;32.15;27.50;;;16.80;85.60;;;;;;5045720;28;20017;-57
2022/10/06 02:11:51;;;;;;;28.40;24.17;;;16.70;85.40;;;;;;5040812;28;20099;-57
2022/10/06 02:14:17;;;;;;;25.63;22.88;;;16.80;85.40;;;;;;5038539;28;20032;-55
2022/10/06 02:16:44;;;;;;;22.48;20.27;;;16.70;85.40;;;;;;5044329;28;20033;-56
2022/10/06 02:19:09;;;;;;;24.48;21.92;;;16.60;85.50;;;;;;5071327;28;20034;-56
2022/10/06 02:21:35;;;;;;;25.55;22.88;;;16.60;85.40;;;;;;5060183;28;20032;-54
2022/10/06 02:24:01;;;;;;;27.20;24.30;;;16.60;85.40;;;;;;5049324;28;20029;-56
2022/10/06 02:26:27;;;;;;;29.95;26.40;;;16.60;85.40;;;;;;5050985;28;20048;-56
2022/10/06 02:28:52;;;;;;;34.33;28.60;;;16.60;85.60;;;;;;5050970;28;20043;-57
2022/10/06 02:31:21;;;;;;;31.58;27.95;;;16.60;85.90;;;;;;5040718;28;20025;-56
2022/10/06 02:33:47;;;;;;;36.22;29.00;;;16.60;86.30;;;;;;5069554;28;20021;-58
2022/10/06 02:36:15;;;;;;;31.33;27.92;;;16.60;87.10;;;;;;5070707;28;20020;-57
2022/10/06 02:38:41;;;;;;;32.33;28.92;;;16.60;86.60;;;;;;5039401;28;20569;-56
2022/10/06 02:41:08;;;;;;;30.75;27.45;;;16.60;86.60;;;;;;5079112;23;20099;-56
2022/10/06 02:43:34;;;;;;;29.63;26.45;;;16.50;86.70;;;;;;5054873;28;20025;-58
2022/10/06 02:46:10;;;;;;;30.63;27.25;;;16.50;86.70;;;;;;5054339;28;20044;-55
2022/10/06 02:48:36;;;;;;;36.35;27.10;;;16.60;86.70;;;;;;5052274;28;20056;-55
2022/10/06 02:51:08;;;;;;;34.90;28.60;;;16.60;86.60;;;;;;5053523;28;20044;-58
2022/10/06 02:53:35;;;;;;;31.20;25.48;;;16.50;86.60;;;;;;5042397;28;20029;-57
2022/10/06 02:56:07;;;;;;;33.13;25.55;;;16.50;86.60;;;;;;5044403;28;20040;-57
2022/10/06 02:58:33;;;;;;;29.20;25.63;;;16.50;86.50;;;;;;5034931;28;20060;-56
2022/10/06 03:01:13;;;;;;;29.08;24.73;;;16.40;86.40;;;;;;5042913;28;20482;-56
2022/10/06 03:03:39;;;;;;;24.73;21.90;;;16.50;86.30;;;;;;5041960;28;20029;-57
2022/10/06 03:06:21;;;;;;;26.63;21.10;;;16.40;86.90;;;;;;5054573;28;20090;-57
2022/10/06 03:08:51;;;;;;;22.17;19.52;;;16.30;86.20;;;;;;5053036;28;20029;-57
2022/10/06 03:11:22;;;;;;;23.42;21.02;;;16.30;85.90;;;;;;5047664;28;20025;-57
2022/10/06 03:13:49;;;;;;;24.40;21.80;;;16.20;86.00;;;;;;5034933;28;20111;-55
2022/10/06 03:16:14;;;;;;;21.33;19.05;;;16.20;86.10;;;;;;5044026;28;20029;-58
2022/10/06 03:18:43;;;;;;;23.20;20.88;;;16.10;85.80;;;;;;5074555;28;20040;-58
2022/10/06 03:21:09;;;;;;;23.67;21.17;;;16.10;85.90;;;;;;5064001;28;20427;-55
2022/10/06 03:23:35;;;;;;;23.00;20.45;;;16.10;85.70;;;;;;5042382;28;20156;-57
2022/10/06 03:26:00;;;;;;;25.13;22.00;;;16.10;85.60;;;;;;5034602;28;20120;-57
2022/10/06 03:28:26;;;;;;;27.48;23.83;;;16.10;85.40;;;;;;5034422;28;20056;-59
2022/10/06 03:30:53;;;;;;;35.15;29.63;;;16.10;85.40;;;;;;5034401;28;20021;-57
2022/10/06 03:33:19;;;;;;;34.55;30.83;;;16.20;85.70;;;;;;5036722;28;20025;-54
2022/10/06 03:35:45;;;;;;;35.97;30.30;;;16.10;85.90;;;;;;5033276;28;20032;-53
2022/10/06 03:38:10;;;;;;;33.80;29.75;;;16.20;86.00;;;;;;5038759;28;20033;-60
2022/10/06 03:40:36;;;;;;;37.33;33.10;;;16.20;86.20;;;;;;5041584;28;20495;-55
2022/10/06 03:43:02;;;;;;;31.08;27.73;;;16.20;86.20;;;;;;5044819;28;20025;-57
2022/10/06 03:45:27;;;;;;;28.55;25.48;;;16.20;86.10;;;;;;5046858;28;20029;-54
2022/10/06 03:47:54;;;;;;;26.67;23.85;;;16.10;86.00;;;;;;5034644;28;20097;-54
2022/10/06 03:50:20;;;;;;;30.48;27.25;;;16.00;86.20;;;;;;5033891;28;20431;-54
2022/10/06 03:52:50;;;;;;;31.60;28.35;;;16.00;86.10;;;;;;5033988;28;20025;-55
2022/10/06 03:55:15;;;;;;;27.63;24.63;;;16.00;86.00;;;;;;5033882;28;20025;-57
2022/10/06 03:57:41;;;;;;;72.55;28.42;;;16.10;85.90;;;;;;5039430;28;20025;-56
2022/10/06 04:00:08;;;;;;;30.17;17.60;;;16.10;85.50;;;;;;5033360;28;20022;-61
2022/10/06 04:02:33;;;;;;;26.20;20.10;;;15.80;85.40;;;;;;5030356;28;20562;-56
2022/10/06 04:04:59;;;;;;;25.08;21.08;;;15.60;86.40;;;;;;5033753;28;20021;-61
2022/10/06 04:07:25;;;;;;;27.33;21.63;;;15.70;86.30;;;;;;5033714;28;20025;-55
2022/10/06 04:09:51;;;;;;;28.08;21.80;;;15.80;85.90;;;;;;5033600;28;20351;-56
2022/10/06 04:12:16;;;;;;;23.15;18.88;;;15.90;85.90;;;;;;5033653;28;20415;-56
2022/10/06 04:14:42;;;;;;;22.65;18.85;;;15.90;85.50;;;;;;5032343;28;20056;-56
2022/10/06 04:17:07;;;;;;;22.08;18.48;;;15.90;85.10;;;;;;5033621;28;20112;-58
2022/10/06 04:19:33;;;;;;;22.58;20.17;;;15.90;84.70;;;;;;5033410;28;20030;-62
2022/10/06 04:21:59;;;;;;;18.33;16.42;;;15.80;85.10;;;;;;5033566;28;20464;-58
2022/10/06 04:24:24;;;;;;;20.58;15.43;;;15.70;85.30;;;;;;5033420;28;20713;-58
2022/10/06 04:26:51;;;;;;;25.08;17.48;;;15.50;85.50;;;;;;5033439;28;20030;-57
2022/10/06 04:29:16;;;;;;;21.53;18.73;;;15.20;87.20;;;;;;5033238;28;20391;-55
2022/10/06 04:31:42;;;;;;;20.65;18.30;;;15.00;87.40;;;;;;5033395;28;20248;-59
2022/10/06 04:34:12;;;;;;;27.45;20.02;;;14.80;87.70;;;;;;5033488;28;20033;-58
2022/10/06 04:36:39;;;;;;;32.42;23.88;;;14.70;88.10;;;;;;5033199;28;20022;-63
2022/10/06 04:39:07;;;;;;;27.35;21.40;;;14.80;88.00;;;;;;5031820;28;20429;-55
2022/10/06 04:41:38;;;;;;;36.38;20.60;;;14.90;88.70;;;;;;5032985;28;20121;-58
2022/10/06 04:44:05;;;;;;;24.40;19.02;;;15.10;88.50;;;;;;5033021;28;20057;-57
2022/10/06 04:46:31;;;;;;;40.30;22.90;;;15.20;87.40;;;;;;5033260;28;20096;-58
2022/10/06 04:48:57;;;;;;;21.23;18.80;;;15.20;88.20;;;;;;5032917;28;20404;-58
2022/10/06 04:51:25;;;;;;;73.57;24.63;;;15.10;88.30;;;;;;5031444;28;20025;-59
2022/10/06 04:53:51;;;;;;;42.40;24.58;;;15.20;87.90;;;;;;5033042;28;20049;-57
2022/10/06 04:56:25;;;;;;;30.27;21.88;;;15.20;88.80;;;;;;5032123;28;20053;-59
2022/10/06 04:58:53;;;;;;;39.10;22.98;;;15.10;89.50;;;;;;5032556;28;20372;-58
2022/10/06 05:01:30;;;;;;;39.78;22.88;;;15.10;88.80;;;;;;5032799;28;20546;-58
2022/10/06 05:03:58;;;;;;;21.90;19.90;;;15.20;88.50;;;;;;5031462;28;20033;-60
2022/10/06 05:06:27;;;;;;;20.90;18.90;;;15.20;87.90;;;;;;5032659;28;20032;-56
2022/10/06 05:08:55;;;;;;;22.38;19.98;;;15.30;87.60;;;;;;5032489;28;20118;-59
2022/10/06 05:11:22;;;;;;;26.95;20.73;;;15.20;87.90;;;;;;5032512;28;20022;-60
2022/10/06 05:13:55;;;;;;;25.10;22.40;;;15.20;87.30;;;;;;5032650;28;20025;-58
2022/10/06 05:16:22;;;;;;;24.15;21.75;;;15.30;86.60;;;;;;5033004;28;20049;-60
2022/10/06 05:18:47;;;;;;;;;;;15.40;85.70;;;;;;5032728;28;20029;-60
2022/10/06 05:21:15;;;;;;;22.70;20.40;;;15.40;85.10;;;;;;5032336;28;19905;-59
2022/10/06 05:23:44;;;;;;;23.05;20.58;;;15.40;84.30;;;;;;5032446;28;20026;-57
2022/10/06 05:26:12;;;;;;;24.05;21.58;;;15.40;84.30;;;;;;5032421;28;20033;-58
2022/10/06 05:28:38;;;;;;;23.52;21.25;;;15.40;84.10;;;;;;5032248;28;20029;-58
2022/10/06 05:31:13;;;;;;;19.50;17.70;;;15.30;84.40;;;;;;5032184;28;20344;-59
2022/10/06 05:33:39;;;;;;;18.45;16.55;;;15.30;84.50;;;;;;5032267;28;20094;-61
2022/10/06 05:36:09;;;;;;;20.20;18.30;;;14.90;85.60;;;;;;5032143;28;20487;-57
2022/10/06 05:38:34;;;;;;;24.40;19.92;;;14.60;86.40;;;;;;5032053;28;20025;-59
2022/10/06 05:41:15;;;;;;;24.55;20.33;;;14.40;88.10;;;;;;5031910;28;20455;-59
2022/10/06 05:43:41;;;;;;;35.00;20.58;;;14.20;89.80;;;;;;5032402;28;20076;-61
2022/10/06 05:46:16;;;;;;;110.53;26.63;;;14.10;90.00;;;;;;5031905;28;20112;-57
2022/10/06 05:48:46;;;;;;;99.72;29.40;;;14.30;88.90;;;;;;5031919;28;20535;-61
2022/10/06 05:51:13;;;;;;;117.15;30.42;;;14.40;87.90;;;;;;5031929;28;20124;-55
2022/10/06 05:53:39;;;;;;;100.57;31.83;;;14.50;87.30;;;;;;5031932;28;20026;-58
2022/10/06 05:56:12;;;;;;;136.38;30.55;;;14.50;87.30;;;;;;5031704;28;20029;-62
2022/10/06 05:58:39;;;;;;;57.00;23.77;;;14.50;87.40;;;;;;5031630;28;20032;-58
2022/10/06 06:01:12;;;;;;;76.75;23.55;;;14.50;88.60;;;;;;5030415;28;20028;-61
2022/10/06 06:03:39;;;;;;;70.88;25.10;;;14.50;89.40;;;;;;5031917;28;20072;-55
2022/10/06 06:06:19;;;;;;;75.07;26.40;;;14.30;90.40;;;;;;5031671;28;20033;-55
2022/10/06 06:08:46;;;;;;;115.97;32.55;;;14.10;91.10;;;;;;5031316;28;20017;-61
2022/10/06 06:11:12;;;;;;;89.07;29.80;;;14.00;91.60;;;;;;5031548;28;20495;-58
2022/10/06 06:13:38;;;;;;;130.48;30.58;;;14.00;91.80;;;;;;5031589;28;20022;-57
2022/10/06 06:16:06;;;;;;;118.20;34.72;;;14.00;92.10;;;;;;5031551;28;20509;-55
2022/10/06 06:18:36;;;;;;;152.00;37.97;;;14.10;92.00;;;;;;5031925;28;20498;-58
2022/10/06 06:21:07;;;;;;;113.85;37.40;;;14.30;91.20;;;;;;5031453;28;20026;-60
2022/10/06 06:23:38;;;;;;;66.00;32.17;;;14.60;91.00;;;;;;5031626;28;20032;-61
2022/10/06 06:26:09;;;;;;;81.65;33.80;;;14.80;91.10;;;;;;5031517;28;20036;-60
2022/10/06 06:28:36;;;;;;;106.97;29.33;;;14.80;91.00;;;;;;5030193;28;20352;-57
2022/10/06 06:31:11;;;;;;;113.03;30.67;;;15.00;90.50;;;;;;5031406;28;20021;-62
2022/10/06 06:33:38;;;;;;;121.25;31.02;;;15.20;90.40;;;;;;5031396;28;20431;-59
2022/10/06 06:36:23;;;;;;;111.57;30.27;;;15.30;90.50;;;;;;5031435;28;20094;-59
2022/10/06 06:38:51;;;;;;;130.02;28.55;;;15.20;91.10;;;;;;5031279;28;20030;-58
2022/10/06 06:41:21;;;;;;;122.75;30.33;;;15.10;91.30;;;;;;5031214;28;20487;-58
2022/10/06 06:43:48;;;;;;;100.43;30.63;;;15.20;91.20;;;;;;5031264;28;20464;-58
2022/10/06 06:46:15;;;;;;;67.57;28.40;;;15.30;90.80;;;;;;5031382;28;20026;-56
2022/10/06 06:48:41;;;;;;;;;;;15.30;90.80;;;;;;5030316;28;20072;-55
2022/10/06 06:51:07;;;;;;;95.55;31.67;;;15.30;91.20;;;;;;5031374;28;20395;-57
2022/10/06 06:53:34;;;;;;;82.25;26.88;;;15.20;91.60;;;;;;5031462;28;20033;-55
2022/10/06 06:55:59;;;;;;;80.78;27.90;;;15.30;91.70;;;;;;5031271;28;20101;-57
2022/10/06 06:58:25;;;;;;;79.47;29.25;;;15.30;91.60;;;;;;5031100;28;20530;-57
2022/10/06 07:00:51;;;;;;;57.17;25.52;;;15.30;91.40;;;;;;5029893;28;20399;-58
2022/10/06 07:03:19;;;;;;;31.20;23.65;;;15.50;91.00;;;;;;5031120;28;20472;-57
2022/10/06 07:05:46;;;;;;;40.70;26.50;;;15.70;90.60;;;;;;5031239;28;20029;-58
2022/10/06 07:08:18;;;;;;;60.33;28.52;;;15.70;91.30;;;;;;5030959;28;20018;-58
2022/10/06 07:10:44;;;;;;;65.50;26.60;;;;;;;;;;5031086;28;20504;-59
2022/10/06 07:13:15;;;;;;;70.30;28.67;;;15.90;90.50;;;;;;5029807;28;20025;-58
2022/10/06 07:26:43;;;;;;;49.97;29.08;;;16.10;90.70;;;;;;5034833;28;20045;-59
2022/10/06 07:29:08;;;;;;;70.88;30.90;;;16.30;90.20;;;;;;5034521;28;20024;-59
2022/10/06 07:31:35;;;;;;;58.47;30.85;;;16.30;90.70;;;;;;5034424;28;20060;-58
2022/10/06 07:34:03;;;;;;;41.63;28.67;;;16.30;90.50;;;;;;5034443;28;20104;-59
2022/10/06 07:36:32;;;;;;;41.83;28.85;;;16.40;90.50;;;;;;5034411;28;20112;-60
2022/10/06 07:38:58;;;;;;;42.03;30.95;;;16.30;91.10;;;;;;5034226;28;20022;-57
2022/10/06 07:41:23;;;;;;;40.20;28.83;;;16.30;91.20;;;;;;5034139;28;20033;-55
2022/10/06 07:43:52;;;;;;;64.55;31.67;;;16.40;91.00;;;;;;5034302;28;20020;-56
2022/10/06 07:46:18;;;;;;;45.70;30.98;;;16.40;91.30;;;;;;5034212;28;20021;-57
2022/10/06 07:48:46;;;;;;;39.17;31.50;;;16.50;91.40;;;;;;5033988;28;20109;-53
2022/10/06 07:51:17;;;;;;;36.90;32.72;;;16.50;91.70;;;;;;5034083;28;20025;-56
2022/10/06 07:53:49;;;;;;;35.25;30.73;;;16.80;91.30;;;;;;5034193;28;20037;-57
2022/10/06 07:56:19;;;;;;;34.65;29.02;;;17.00;91.10;;;;;;5034076;28;20435;-56
2022/10/06 07:58:45;;;;;;;39.00;30.50;;;17.30;90.50;;;;;;5033882;28;20404;-56
2022/10/06 08:01:13;;;;;;;44.97;32.40;;;17.40;90.40;;;;;;5032601;28;20022;-57
2022/10/06 08:03:40;;;;;;;36.20;31.95;;;17.40;90.40;;;;;;5033818;28;20029;-56
2022/10/06 08:06:11;;;;;;;37.35;32.75;;;17.60;90.20;;;;;;5033754;28;20025;-56
2022/10/06 08:08:37;;;;;;;40.40;35.97;;;17.70;90.00;;;;;;5033687;28;20026;-56
2022/10/06 08:11:04;;;;;;;40.45;34.38;;;17.90;89.90;;;;;;5033720;28;20097;-55
2022/10/06 08:13:33;;;;;;;42.55;34.85;;;17.90;89.80;;;;;;5033703;28;20574;-56
2022/10/06 08:16:07;;;;;;;42.33;35.10;;;17.80;90.00;;;;;;5032419;28;20029;-55
2022/10/06 08:18:34;;;;;;;43.65;36.85;;;17.80;90.20;;;;;;5033537;28;20040;-56
2022/10/06 08:20:59;;;;;;;40.58;35.75;;;17.80;90.30;;;;;;5033686;28;20053;-56
2022/10/06 08:23:25;;;;;;;42.47;36.75;;;17.80;90.50;;;;;;5032359;28;20065;-55
2022/10/06 08:25:53;;;;;;;43.90;38.08;;;17.80;90.40;;;;;;5033443;28;20025;-57
2022/10/06 08:28:20;;;;;;;42.15;36.72;;;17.90;90.30;;;;;;5033391;28;20400;-56
2022/10/06 08:30:50;;;;;;;46.25;38.75;;;18.10;90.10;;;;;;5033109;28;20022;-56
2022/10/06 08:33:15;;;;;;;45.60;39.78;;;18.20;90.00;;;;;;5033458;28;20215;-55
2022/10/06 08:35:41;;;;;;;45.38;39.28;;;18.40;89.80;;;;;;5033356;28;20623;-55
2022/10/06 08:38:07;;;;;;;44.10;39.13;;;18.50;89.30;;;;;;5033228;28;20029;-57
2022/10/06 08:40:33;;;;;;;46.97;39.50;;;18.50;89.30;;;;;;5032853;28;20472;-57
2022/10/06 08:43:01;;;;;;;45.70;38.63;;;18.60;89.00;;;;;;5072227;23;20049;-61
2022/10/06 08:45:34;;;;;;;47.72;39.33;;;18.50;89.50;;;;;;5052832;28;20279;-61
2022/10/06 08:48:02;;;;;;;53.50;41.35;;;18.40;90.10;;;;;;5053175;28;20037;-61
2022/10/06 08:50:36;;;;;;;46.45;38.47;;;18.40;90.20;;;;;;5052892;28;20035;-61
2022/10/06 08:53:20;;;;;;;51.35;41.15;;;18.50;90.20;;;;;;5052848;28;20096;-62
2022/10/06 08:56:17;;;;;;;54.65;43.03;;;18.60;90.00;;;;;;5053000;28;20273;-62
2022/10/06 08:59:03;;;;;;;51.33;38.83;;;18.70;89.50;;;;;;5052790;28;20079;-62
2022/10/06 09:01:46;;;;;;;48.17;39.13;;;18.90;89.10;;;;;;5051389;28;20103;-62
2022/10/06 09:04:32;;;;;;;48.20;37.95;;;19.00;88.40;;;;;;5052827;28;20037;-61
2022/10/06 09:07:26;;;;;;;46.58;36.83;;;19.20;88.10;;;;;;5052720;28;20056;-61
2022/10/06 09:10:00;;;;;;;51.30;35.88;;;19.40;86.90;;;;;;5052448;28;20021;-61
2022/10/06 09:12:35;;;;;;;47.13;35.83;;;19.50;86.30;;;;;;5051231;28;20028;-62
2022/10/06 09:15:29;;;;;;;49.97;38.83;;;19.50;85.90;;;;;;5052573;28;20035;-62
2022/10/06 09:18:01;;;;;;;47.72;35.92;;;19.70;84.50;;;;;;5044957;28;20068;-61
2022/10/06 09:20:34;;;;;;;45.60;35.47;;;19.70;84.60;;;;;;5052522;28;20311;-62
2022/10/06 09:23:05;;;;;;;46.45;36.35;;;19.80;83.80;;;;;;5052196;28;20040;-61
2022/10/06 09:25:31;;;;;;;45.25;36.13;;;19.80;84.10;;;;;;5052295;28;20029;-61
2022/10/06 09:27:59;;;;;;;47.55;36.50;;;19.90;84.00;;;;;;5052294;28;20115;-61
2022/10/06 09:30:26;;;;;;;43.45;35.75;;;20.00;83.00;;;;;;5052039;28;20499;-61
2022/10/06 09:33:01;;;;;;;48.05;36.28;;;20.10;83.50;;;;;;5050819;28;20025;-62
2022/10/06 09:35:29;;;;;;;44.70;36.75;;;20.20;82.40;;;;;;5052076;28;20528;-62
2022/10/06 09:37:55;;;;;;;49.55;38.35;;;20.20;82.70;;;;;;5052048;28;20433;-61
2022/10/06 09:40:30;;;;;;;45.38;35.88;;;20.30;82.70;;;;;;5051925;28;20024;-61
2022/10/06 09:42:56;;;;;;;47.45;35.00;;;20.40;81.40;;;;;;5051167;28;20041;-61
2022/10/06 09:45:24;;;;;;;43.67;33.90;;;20.20;80.20;;;;;;5051926;28;20049;-62
2022/10/06 09:47:50;;;;;;;43.25;34.88;;;20.10;80.70;;;;;;5051914;28;20029;-61
2022/10/06 09:50:23;;;;;;;44.28;35.30;;;20.10;81.40;;;;;;5051713;28;20461;-62
2022/10/06 09:53:02;;;;;;;47.75;36.30;;;20.20;81.70;;;;;;5051888;28;20101;-62
2022/10/06 09:55:33;;;;;;;43.47;34.95;;;20.30;81.10;;;;;;5051778;28;20017;-61
2022/10/06 09:58:00;;;;;;;44.70;35.80;;;20.30;81.30;;;;;;5051892;28;20090;-62
2022/10/06 10:00:31;;;;;;;46.65;38.60;;;20.40;81.60;;;;;;5051442;28;20075;-62
2022/10/06 10:03:03;;;;;;;43.65;35.03;;;20.60;81.50;;;;;;5051655;28;20029;-61
2022/10/06 10:05:31;;;;;;;45.75;34.95;;;20.70;80.90;;;;;;5051590;28;20025;-62
2022/10/06 10:08:05;;;;;;;41.00;33.97;;;20.70;79.60;;;;;;5051624;28;20029;-61
2022/10/06 10:10:33;;;;;;;45.22;35.45;;;20.80;79.70;;;;;;5051781;28;20495;-59
2022/10/06 10:12:59;;;;;;;42.50;35.92;;;20.90;79.10;;;;;;5051425;28;20045;-58
2022/10/06 10:15:39;;;;;;;45.75;35.53;;;21.00;79.40;;;;;;5050265;28;20049;-57
2022/10/06 10:18:11;;;;;;;43.15;33.70;;;21.10;78.70;;;;;;5053759;28;20074;-57
2022/10/06 10:21:07;;;;;;;42.83;35.13;;;21.30;78.40;;;;;;5037899;28;20108;-58
2022/10/06 10:23:41;;;;;;;43.83;34.65;;;21.50;76.80;;;;;;5034985;28;20087;-58
2022/10/06 10:26:31;;;;;;;43.63;34.50;;;21.50;77.50;;;;;;5051561;28;20494;-59
2022/10/06 10:29:21;;;;;;;40.42;33.72;;;21.50;75.70;;;;;;5051181;28;20033;-59
2022/10/06 10:32:02;;;;;;;52.30;35.88;;;21.60;76.80;;;;;;5049999;28;20483;-58
2022/10/06 10:34:46;;;;;;;42.88;34.85;;;21.70;75.80;;;;;;5051589;28;20028;-59
2022/10/06 10:37:29;;;;;;;45.55;34.80;;;21.80;76.50;;;;;;5035062;28;20108;-59
2022/10/06 10:40:10;;;;;;;44.05;35.15;;;21.90;75.20;;;;;;5033108;28;20484;-58
2022/10/06 10:43:01;;;;;;;43.53;34.47;;;21.90;74.60;;;;;;5039988;28;20071;-59
2022/10/06 10:45:34;;;;;;;42.17;33.08;;;22.00;74.10;;;;;;5030985;28;20075;-59
2022/10/06 10:48:14;;;;;;;42.88;31.60;;;22.00;74.70;;;;;;5031556;28;20028;-58
2022/10/06 10:50:47;;;;;;;40.20;33.83;;;22.10;74.80;;;;;;5030240;28;20059;-59
2022/10/06 10:53:31;;;;;;;34.53;29.35;;;22.10;74.00;;;;;;5045417;28;20483;-59
2022/10/06 10:55:59;;;;;;;34.10;27.33;;;22.20;73.00;;;;;;5033369;28;20056;-59
2022/10/06 10:58:27;;;;;;;41.08;31.52;;;22.30;73.90;;;;;;5035009;28;20028;-59
2022/10/06 11:00:58;;;;;;;37.65;30.90;;;22.50;72.30;;;;;;5046403;28;20111;-59
2022/10/06 11:03:24;;;;;;;38.05;29.90;;;22.60;72.80;;;;;;5055176;28;20188;-59
2022/10/06 11:06:20;;;;;;;41.78;31.77;;;22.70;72.30;;;;;;5054902;28;20497;-59
2022/10/06 11:09:09;;;;;;;37.88;30.40;;;;;;;;;;5040203;28;20183;-59
2022/10/06 11:11:44;;;;;;;39.35;30.77;;;22.70;70.70;;;;;;5007635;28;20119;-60
2022/10/06 11:14:28;;;;;;;37.15;30.23;;;22.80;71.60;;;;;;5043870;28;20033;-59
2022/10/06 11:17:38;;;;;;;43.63;30.77;;;23.00;71.30;;;;;;5035765;28;20025;-59
2022/10/06 11:20:36;;;;;;;38.17;29.02;;;23.10;69.50;;;;;;5066983;28;20410;-59
2022/10/06 11:23:11;;;;;;;35.97;30.15;;;23.20;68.10;;;;;;5065569;28;20026;-59
2022/10/06 11:26:10;;;;;;;40.42;29.05;;;23.30;68.40;;;;;;5052932;28;20035;-60
2022/10/06 11:29:07;;;;;;;36.80;30.30;;;23.30;68.90;;;;;;5036402;28;20040;-59
2022/10/06 11:31:44;;;;;;;32.95;28.00;;;23.50;68.40;;;;;;5057605;28;20029;-59
2022/10/06 11:34:11;;;;;;;;;;;23.60;68.30;;;;;;5034910;28;20032;-59
2022/10/06 11:37:02;;;;;;;38.40;30.35;;;23.60;65.70;;;;;;5038440;28;19916;-59
2022/10/06 11:39:44;;;;;;;41.67;31.08;;;23.70;67.30;;;;;;5045189;28;20108;-58
2022/10/06 11:42:22;;;;;;;39.13;31.73;;;23.70;64.30;;;;;;5049218;28;20044;-59
2022/10/06 11:44:57;;;;;;;40.40;31.92;;;23.60;64.40;;;;;;5054115;28;20399;-56
2022/10/06 11:47:29;;;;;;;43.90;31.40;;;23.60;65.00;;;;;;5052989;28;20049;-59
2022/10/06 11:49:54;;;;;;;41.25;30.70;;;23.70;65.90;;;;;;5042224;28;20022;-59
2022/10/06 11:52:20;;;;;;;39.53;31.67;;;23.80;66.10;;;;;;5047946;28;20083;-59
2022/10/06 11:54:54;;;;;;;39.10;32.67;;;24.00;66.50;;;;;;5054052;28;20576;-58
2022/10/06 11:57:22;;;;;;;39.80;31.65;;;24.10;65.40;;;;;;5052625;28;20040;-58
2022/10/06 11:59:54;;;;;;;42.60;32.53;;;24.20;64.80;;;;;;5053757;28;20020;-59
2022/10/06 12:02:35;;;;;;;42.22;32.78;;;24.30;64.10;;;;;;5054025;28;20029;-59
2022/10/06 12:05:18;;;;;;;42.58;32.00;;;24.30;62.40;;;;;;5052253;28;20106;-59
2022/10/06 12:07:53;;;;;;;40.47;30.92;;;24.20;62.00;;;;;;5053383;28;20056;-58
2022/10/06 12:10:28;;;;;;;44.95;32.25;;;24.20;62.20;;;;;;5053721;28;20127;-59
2022/10/06 12:13:15;;;;;;;41.05;33.40;;;24.30;63.90;;;;;;5050235;28;20189;-59
2022/10/06 12:15:56;;;;;;;42.13;32.95;;;24.30;62.30;;;;;;5053630;28;20021;-59
2022/10/06 12:18:28;;;;;;;41.20;33.20;;;24.20;61.80;;;;;;5033544;28;20510;-59
2022/10/06 12:21:15;;;;;;;41.47;33.70;;;24.40;60.50;;;;;;5042815;28;20224;-59
2022/10/06 12:24:17;;;;;;;39.03;31.90;;;24.50;60.40;;;;;;5051780;28;20029;-59
2022/10/06 12:26:42;;;;;;;43.25;34.13;;;24.40;60.20;;;;;;5052108;28;20037;-58
2022/10/06 12:29:41;;;;;;;40.17;32.03;;;24.30;60.00;;;;;;5039639;28;20446;-57
2022/10/06 12:32:19;;;;;;;43.80;32.72;;;24.30;61.80;;;;;;5032119;28;20028;-59
2022/10/06 12:34:51;;;;;;;35.83;30.60;;;24.60;61.50;;;;;;5033414;28;20092;-59
2022/10/06 12:37:29;;;;;;;43.42;31.25;;;24.80;61.40;;;;;;5048951;28;20052;-58
2022/10/06 12:40:32;;;;;;;41.80;32.00;;;25.10;60.50;;;;;;5052770;28;20109;-59
2022/10/06 12:43:19;;;;;;;35.95;29.33;;;25.40;60.10;;;;;;5052900;28;20033;-59
2022/10/06 12:45:59;;;;;;;38.95;29.13;;;25.70;56.80;;;;;;5049943;28;20072;-59
2022/10/06 12:49:00;;;;;;;36.63;29.08;;;26.00;56.20;;;;;;5034045;28;20017;-58
2022/10/06 12:51:32;;;;;;;34.60;29.65;;;26.20;55.40;;;;;;5050925;28;20060;-59
2022/10/06 12:54:14;;;;;;;34.47;28.77;;;26.40;56.80;;;;;;5053043;28;20025;-59
2022/10/06 12:56:41;;;;;;;41.30;31.73;;;26.60;56.80;;;;;;5036050;28;20124;-59
2022/10/06 12:59:22;;;;;;;36.63;28.55;;;26.70;56.20;;;;;;5032937;28;20582;-59